HESH

Sharm El Sheikh International Airport

Sharm el-Sheikh, Egypt
METAR HESH 230800Z 07006KT CAVOK 33/10 Q1013 NOSIG
Observed Flight Rules
Oct-23 @ 08:00 UTC (2 hours ago) Visual Flight Rules
Wind Visibility Clouds
70° at 6 knots 10,000+ meters
  • Clear skies
Temperatures Readings
Current 33°C / 91°F
Dewpoint 10°C / 50°F
Humidity 24%
Altimeter 29.91" Hg
Pressure 1013 hPa
Elevation 50
METAR HESH 230800Z 07006KT CAVOK 33/10 Q1013 NOSIG
Observed Flight Rules
Oct-23 @ 08:00 UTC
(2 hours ago)
VFR
Wind Visibility
70° at 6 knots 10,000+ meters
Clouds
  • Clear skies
Temperature Dewpoint
33°C / 91°F 10°C / 50°F
Humidity Altimeter Pressure
24% 29.91" Hg 1013 hPa